Time;durP1;ratioP1;P1;durP2;ratioP2;P2;SDS_P1;SDS_P2;PMS_P1;PMS_P2;Temp;Humidity;BMP_temperature;BMP_pressure;BME280_temperature;BME280_humidity;BME280_pressure;Samples;Min_cycle;Max_cycle;Signal;HPM_P1;HPM_P2
2024/03/10 00:00:42;;;;;;;11.13;2.90;;;12.20;81.90;;;;;;5032009;28;20051;-58
2024/03/10 00:03:08;;;;;;;11.18;2.92;;;12.20;81.70;;;;;;5048718;28;20025;-58
2024/03/10 00:05:34;;;;;;;9.70;2.75;;;12.20;81.80;;;;;;5031753;28;20116;-58
2024/03/10 00:07:59;;;;;;;10.68;2.85;;;12.20;81.70;;;;;;5031620;28;20056;-57
2024/03/10 00:10:25;;;;;;;11.35;3.00;;;12.20;81.80;;;;;;5048476;28;20033;-58
2024/03/10 00:12:51;;;;;;;12.60;2.53;;;12.20;81.60;;;;;;5048249;28;20047;-58
2024/03/10 00:15:20;;;;;;;10.32;2.50;;;12.20;81.40;;;;;;5033365;28;20060;-58
2024/03/10 00:17:46;;;;;;;8.10;2.83;;;12.20;81.30;;;;;;5036052;28;20029;-58
2024/03/10 00:20:12;;;;;;;7.78;2.40;;;12.20;81.30;;;;;;5052174;28;20032;-57
2024/03/10 00:22:41;;;;;;;11.60;2.50;;;12.20;81.40;;;;;;5070188;28;20029;-58
2024/03/10 00:25:07;;;;;;;10.68;2.70;;;12.20;81.40;;;;;;5052060;28;20098;-57
2024/03/10 00:27:33;;;;;;;7.22;2.65;;;12.20;81.70;;;;;;5051995;28;20103;-58
2024/03/10 00:29:58;;;;;;;10.93;2.70;;;12.20;81.70;;;;;;5069790;28;20036;-58
2024/03/10 00:32:24;;;;;;;10.68;2.47;;;12.10;81.20;;;;;;5069867;28;20036;-58
2024/03/10 00:34:51;;;;;;;9.57;2.10;;;12.10;81.60;;;;;;5052116;28;20029;-57
2024/03/10 00:37:17;;;;;;;7.88;2.72;;;12.20;81.90;;;;;;5052096;28;20044;-58
2024/03/10 00:39:42;;;;;;;7.80;1.90;;;12.10;81.70;;;;;;5051883;28;20033;-58
2024/03/10 00:42:08;;;;;;;8.48;2.15;;;12.10;81.70;;;;;;5051747;28;20028;-58
2024/03/10 00:44:33;;;;;;;8.02;2.55;;;12.10;81.40;;;;;;5035146;28;20036;-58
2024/03/10 00:46:59;;;;;;;4.82;1.90;;;12.10;81.50;;;;;;5069699;28;20033;-58
2024/03/10 00:49:25;;;;;;;8.82;2.40;;;12.10;81.50;;;;;;5035077;28;20040;-58
2024/03/10 00:51:51;;;;;;;10.18;2.22;;;12.10;81.50;;;;;;5051603;28;20040;-58
2024/03/10 00:54:17;;;;;;;10.38;2.20;;;12.10;81.50;;;;;;5051690;28;20032;-58
2024/03/10 00:56:43;;;;;;;7.15;2.55;;;12.10;81.50;;;;;;5051444;28;20383;-58
2024/03/10 00:59:09;;;;;;;7.55;1.95;;;12.10;81.20;;;;;;5051633;28;20094;-58
2024/03/10 01:01:34;;;;;;;8.18;2.40;;;12.10;81.30;;;;;;5069387;28;20383;-58
2024/03/10 01:04:00;;;;;;;5.78;2.03;;;12.10;81.00;;;;;;5069332;28;20029;-58
2024/03/10 01:06:25;;;;;;;6.13;1.90;;;12.10;81.20;;;;;;5069360;28;20021;-58
2024/03/10 01:08:51;;;;;;;4.60;1.70;;;12.10;81.00;;;;;;5051074;28;20079;-58
2024/03/10 01:11:17;;;;;;;5.03;1.70;;;12.00;81.00;;;;;;5069039;28;20051;-56
2024/03/10 01:13:46;;;;;;;7.20;1.80;;;12.00;81.00;;;;;;5051386;28;20380;-58
2024/03/10 01:16:12;;;;;;;7.35;1.63;;;12.10;81.00;;;;;;5069298;28;20040;-58
2024/03/10 01:18:38;;;;;;;6.38;1.90;;;12.00;80.40;;;;;;5051440;28;20086;-58
2024/03/10 01:21:04;;;;;;;12.32;1.80;;;12.00;80.60;;;;;;5069112;28;20029;-58
2024/03/10 01:23:30;;;;;;;6.78;1.77;;;12.00;81.30;;;;;;5051105;28;20032;-58
2024/03/10 01:25:55;;;;;;;6.45;2.38;;;12.00;81.90;;;;;;5068539;28;20055;-58
2024/03/10 01:28:21;;;;;;;3.97;1.67;;;12.00;81.00;;;;;;5068322;28;20070;-58
2024/03/10 01:30:47;;;;;;;5.45;1.90;;;12.00;81.10;;;;;;5068797;28;20047;-58
2024/03/10 01:33:12;;;;;;;6.75;1.90;;;12.00;80.80;;;;;;5068909;28;20076;-58
2024/03/10 01:35:42;;;;;;;5.50;2.20;;;12.00;81.00;;;;;;5068559;28;20057;-58
2024/03/10 01:38:07;;;;;;;7.95;1.70;;;12.00;80.70;;;;;;5068842;28;20036;-58
2024/03/10 01:40:33;;;;;;;6.18;1.80;;;12.00;81.00;;;;;;5068733;28;20025;-58
2024/03/10 01:42:59;;;;;;;4.30;1.65;;;12.00;81.30;;;;;;5050687;28;20033;-58
2024/03/10 01:45:24;;;;;;;8.55;1.80;;;12.00;81.70;;;;;;5068528;28;20025;-58
2024/03/10 01:47:50;;;;;;;4.10;1.40;;;11.90;81.80;;;;;;5050670;28;20026;-57
2024/03/10 01:50:16;;;;;;;4.72;1.85;;;11.90;81.90;;;;;;5050503;28;20471;-58
2024/03/10 01:52:42;;;;;;;7.43;1.52;;;11.90;81.70;;;;;;5068528;28;20029;-58
2024/03/10 01:55:08;;;;;;;6.00;1.80;;;11.90;81.50;;;;;;5050663;28;20021;-58
2024/03/10 01:57:34;;;;;;;6.93;1.70;;;11.90;81.60;;;;;;5033968;28;20021;-58
2024/03/10 02:00:00;;;;;;;7.65;1.63;;;11.90;81.50;;;;;;5033702;28;20036;-58
2024/03/10 02:02:26;;;;;;;3.78;1.40;;;11.90;81.80;;;;;;5050266;28;20486;-57
2024/03/10 02:04:51;;;;;;;7.80;2.08;;;11.90;81.70;;;;;;5033833;28;20033;-58
2024/03/10 02:07:17;;;;;;;6.43;1.77;;;11.80;81.30;;;;;;5050277;28;20025;-58
2024/03/10 02:09:44;;;;;;;6.60;1.52;;;11.80;81.10;;;;;;5050156;28;20123;-58
2024/03/10 02:12:11;;;;;;;5.00;1.80;;;11.80;81.30;;;;;;5050403;28;20029;-58
2024/03/10 02:14:37;;;;;;;3.90;1.50;;;11.80;82.00;;;;;;5050092;28;20088;-58
2024/03/10 02:17:03;;;;;;;4.20;1.58;;;11.80;82.30;;;;;;5049858;28;20021;-58
2024/03/10 02:19:32;;;;;;;5.28;1.35;;;11.80;81.90;;;;;;5067864;28;20079;-58
2024/03/10 02:21:58;;;;;;;4.28;1.67;;;11.80;81.50;;;;;;5050304;28;20108;-57
2024/03/10 02:24:33;;;;;;;3.53;1.40;;;11.80;81.90;;;;;;5050060;28;20036;-58
2024/03/10 02:26:59;;;;;;;2.65;1.35;;;11.80;82.00;;;;;;5050155;28;20021;-58
2024/03/10 02:29:26;;;;;;;2.72;1.30;;;11.80;82.10;;;;;;5049886;28;20536;-58
2024/03/10 02:48:19;;;;;;;4.82;1.40;;;11.70;81.50;;;;;;5052155;28;20498;-58
2024/03/10 02:50:45;;;;;;;5.15;1.73;;;11.70;81.60;;;;;;5049910;28;20037;-57
2024/03/10 02:53:11;;;;;;;3.85;1.33;;;11.70;81.50;;;;;;5049520;28;20085;-58
2024/03/10 02:55:37;;;;;;;5.03;1.33;;;11.70;81.10;;;;;;5049397;28;20032;-58
2024/03/10 02:58:06;;;;;;;4.78;1.92;;;11.70;81.30;;;;;;5049277;28;20021;-57
2024/03/10 03:00:32;;;;;;;4.38;1.33;;;11.70;81.50;;;;;;5049300;28;20029;-58
2024/03/10 03:02:58;;;;;;;3.25;1.20;;;11.70;81.40;;;;;;5049169;28;20033;-58
2024/03/10 03:05:26;;;;;;;2.33;1.10;;;11.70;81.10;;;;;;5049049;28;20032;-57
2024/03/10 03:07:53;;;;;;;2.47;1.13;;;11.70;81.50;;;;;;5049459;28;20084;-58
2024/03/10 03:10:19;;;;;;;2.38;1.15;;;11.70;81.50;;;;;;5032373;28;20079;-58
2024/03/10 03:12:44;;;;;;;4.90;1.52;;;11.70;81.20;;;;;;5048792;28;20060;-51
2024/03/10 03:15:10;;;;;;;3.35;1.20;;;11.70;81.50;;;;;;5048994;28;20468;-51
2024/03/10 03:17:36;;;;;;;1.70;0.90;;;11.70;81.40;;;;;;5048879;28;20059;-51
2024/03/10 03:20:15;;;;;;;5.00;1.30;;;11.70;81.40;;;;;;5066683;28;20088;-51
2024/03/10 03:22:44;;;;;;;3.83;1.02;;;11.70;81.30;;;;;;5066705;28;20033;-51
2024/03/10 03:25:11;;;;;;;5.82;1.20;;;11.70;81.20;;;;;;5048993;28;20029;-51
2024/03/10 03:27:38;;;;;;;1.83;0.80;;;11.70;81.10;;;;;;5066658;28;20037;-51
2024/03/10 03:30:06;;;;;;;3.28;1.00;;;11.70;81.30;;;;;;5066682;28;20025;-51
2024/03/10 03:32:33;;;;;;;2.50;1.17;;;11.70;81.40;;;;;;5066575;28;20035;-51
2024/03/10 03:34:58;;;;;;;2.63;1.20;;;11.70;81.20;;;;;;5066746;28;20107;-51
2024/03/10 03:37:24;;;;;;;5.32;1.02;;;11.70;81.10;;;;;;5066512;28;20044;-51
2024/03/10 03:39:50;;;;;;;3.05;1.10;;;11.70;80.90;;;;;;5048736;28;20049;-51
2024/03/10 03:42:16;;;;;;;2.17;0.80;;;11.70;81.00;;;;;;5066439;28;20509;-51
2024/03/10 03:44:44;;;;;;;4.45;0.88;;;11.70;80.90;;;;;;5048512;28;20032;-51
2024/03/10 03:47:10;;;;;;;3.25;0.90;;;11.70;81.70;;;;;;5049035;28;20059;-51
2024/03/10 03:49:36;;;;;;;1.33;0.70;;;11.70;81.10;;;;;;5065646;28;20379;-51
2024/03/10 03:52:01;;;;;;;3.15;0.80;;;11.70;81.40;;;;;;5066265;28;20033;-51
2024/03/10 03:54:31;;;;;;;2.33;0.90;;;11.70;81.60;;;;;;5066376;28;20033;-51
2024/03/10 03:56:58;;;;;;;2.92;0.93;;;11.70;81.60;;;;;;5049311;28;20055;-51
2024/03/10 03:59:24;;;;;;;2.70;1.00;;;11.70;81.80;;;;;;5048852;28;20033;-51
2024/03/10 04:01:50;;;;;;;1.25;0.60;;;11.70;81.70;;;;;;5048594;28;20033;-51
2024/03/10 04:04:16;;;;;;;2.42;0.57;;;11.60;81.30;;;;;;5048353;28;20032;-51
2024/03/10 04:06:43;;;;;;;1.92;0.73;;;11.60;81.00;;;;;;5066329;28;20025;-51
2024/03/10 04:09:09;;;;;;;2.80;0.77;;;11.70;80.90;;;;;;5048602;28;20033;-51
2024/03/10 04:11:35;;;;;;;1.20;0.80;;;11.60;80.60;;;;;;5031790;28;20026;-51
2024/03/10 04:14:00;;;;;;;2.08;0.80;;;11.60;80.30;;;;;;5066209;28;20026;-51
2024/03/10 04:16:26;;;;;;;1.65;0.70;;;11.60;80.30;;;;;;5031744;28;20025;-51
2024/03/10 04:18:52;;;;;;;1.65;0.82;;;11.60;81.00;;;;;;5048273;28;20033;-51
2024/03/10 04:21:17;;;;;;;1.88;0.80;;;11.60;80.90;;;;;;5066017;28;20079;-51
2024/03/10 04:23:43;;;;;;;1.85;0.70;;;11.60;81.00;;;;;;5031564;28;20033;-51
2024/03/10 04:26:09;;;;;;;2.15;0.73;;;11.60;81.00;;;;;;5048218;28;20036;-51
2024/03/10 04:28:35;;;;;;;2.20;0.68;;;11.60;80.70;;;;;;5031408;28;20036;-51
2024/03/10 04:31:01;;;;;;;2.38;0.73;;;11.60;80.40;;;;;;5048261;28;20021;-51
2024/03/10 04:33:27;;;;;;;2.25;0.93;;;11.60;80.50;;;;;;5031647;28;20055;-51
2024/03/10 04:35:53;;;;;;;1.10;0.45;;;11.60;80.60;;;;;;5048042;28;20039;-51
2024/03/10 04:38:19;;;;;;;2.25;0.70;;;11.60;80.70;;;;;;5065899;28;20021;-51
2024/03/10 04:40:44;;;;;;;2.58;0.73;;;11.60;80.50;;;;;;5048107;28;20514;-51
2024/03/10 04:43:10;;;;;;;1.33;0.50;;;11.60;80.60;;;;;;5048324;28;20032;-51
2024/03/10 04:45:36;;;;;;;3.30;0.80;;;11.60;80.70;;;;;;5048119;28;20025;-51
2024/03/10 04:48:02;;;;;;;1.88;0.90;;;11.60;80.70;;;;;;5048270;28;20064;-51
2024/03/10 04:50:29;;;;;;;2.58;0.60;;;11.60;80.30;;;;;;5048020;28;20483;-51
2024/03/10 04:52:57;;;;;;;2.80;0.63;;;11.60;80.20;;;;;;5031559;28;20029;-51
2024/03/10 04:55:23;;;;;;;2.78;0.70;;;11.50;80.10;;;;;;5048239;28;20035;-51
2024/03/10 04:57:49;;;;;;;1.13;0.70;;;11.50;80.50;;;;;;5047984;28;20461;-51
2024/03/10 05:00:18;;;;;;;2.63;0.80;;;11.60;80.70;;;;;;5065727;28;20055;-51
2024/03/10 05:02:44;;;;;;;1.08;0.65;;;11.50;80.60;;;;;;5067961;28;20039;-51
2024/03/10 05:05:10;;;;;;;2.08;0.70;;;11.50;81.20;;;;;;5069444;28;20063;-51
2024/03/10 05:07:36;;;;;;;1.55;0.70;;;11.50;80.90;;;;;;5069368;28;20029;-51
2024/03/10 05:10:03;;;;;;;1.13;0.50;;;11.50;81.20;;;;;;5051483;28;20498;-51
2024/03/10 05:12:29;;;;;;;1.05;0.60;;;11.50;81.30;;;;;;5051684;28;20088;-51
2024/03/10 05:14:54;;;;;;;1.88;0.60;;;11.50;81.50;;;;;;5051279;28;20036;-51
2024/03/10 05:17:20;;;;;;;0.98;0.47;;;11.50;81.50;;;;;;5069190;28;20029;-51
2024/03/10 05:19:45;;;;;;;1.33;0.70;;;11.50;81.60;;;;;;5069115;28;20055;-51
2024/03/10 05:22:12;;;;;;;1.52;0.73;;;11.50;81.60;;;;;;5034706;28;20033;-51
2024/03/10 05:24:42;;;;;;;0.93;0.52;;;11.50;81.80;;;;;;5068855;28;20036;-51
2024/03/10 05:27:09;;;;;;;2.35;0.57;;;11.50;81.40;;;;;;5034725;28;20033;-51
2024/03/10 05:29:35;;;;;;;1.30;0.70;;;11.50;81.60;;;;;;5034500;28;20037;-51
2024/03/10 05:32:05;;;;;;;0.98;0.60;;;11.50;81.60;;;;;;5068985;28;20068;-51
2024/03/10 05:34:32;;;;;;;1.13;0.70;;;11.50;81.80;;;;;;5050897;28;20033;-51
2024/03/10 05:36:58;;;;;;;1.75;0.50;;;11.50;81.50;;;;;;5068686;28;20116;-51
2024/03/10 05:39:24;;;;;;;1.77;0.65;;;11.40;81.40;;;;;;5050962;28;20075;-51
2024/03/10 05:41:50;;;;;;;1.02;0.40;;;11.50;81.70;;;;;;5050780;28;20387;-51
2024/03/10 05:44:15;;;;;;;3.08;0.90;;;11.50;81.80;;;;;;5050720;28;20032;-51
2024/03/10 05:46:44;;;;;;;1.55;0.63;;;11.40;81.90;;;;;;5050627;28;20033;-51
2024/03/10 05:49:09;;;;;;;2.55;0.70;;;11.40;81.80;;;;;;5051025;28;20033;-51
2024/03/10 05:51:35;;;;;;;3.55;0.65;;;11.40;81.80;;;;;;5068350;28;20032;-51
2024/03/10 05:54:00;;;;;;;1.00;0.60;;;11.40;81.80;;;;;;5050839;28;20053;-51
2024/03/10 05:56:26;;;;;;;1.40;0.60;;;11.40;82.00;;;;;;5050611;28;20518;-51
2024/03/10 05:58:52;;;;;;;1.42;0.80;;;11.40;82.10;;;;;;5033914;28;20051;-51
2024/03/10 06:01:23;;;;;;;1.23;0.70;;;11.40;82.10;;;;;;5050535;28;20029;-51
2024/03/10 06:03:53;;;;;;;1.17;0.60;;;11.40;82.20;;;;;;5051157;28;20029;-51
2024/03/10 06:06:19;;;;;;;3.05;1.08;;;11.40;82.10;;;;;;5050894;28;20116;-51
2024/03/10 06:08:44;;;;;;;2.05;0.60;;;11.30;82.20;;;;;;5050147;28;20033;-51
2024/03/10 06:11:11;;;;;;;0.93;0.65;;;11.30;82.30;;;;;;5068191;28;20489;-51
2024/03/10 06:13:38;;;;;;;1.02;0.40;;;11.30;82.20;;;;;;5049889;28;20033;-51
2024/03/10 06:16:05;;;;;;;3.33;0.60;;;11.30;82.20;;;;;;5050004;28;20070;-51
2024/03/10 06:18:31;;;;;;;1.23;0.60;;;11.30;82.20;;;;;;5050355;28;20080;-51
2024/03/10 06:26:26;;;;;;;0.95;0.65;;;11.30;82.20;;;;;;5052469;28;20040;-51
2024/03/10 06:28:52;;;;;;;0.85;0.50;;;11.30;82.10;;;;;;5032765;28;20033;-51
2024/03/10 06:31:18;;;;;;;1.98;0.70;;;11.30;82.00;;;;;;5049752;28;20029;-52
2024/03/10 06:33:44;;;;;;;2.33;0.50;;;11.30;82.00;;;;;;5050247;28;20066;-51
2024/03/10 06:36:10;;;;;;;0.93;0.40;;;11.30;82.20;;;;;;5049800;28;20041;-51
2024/03/10 06:38:40;;;;;;;1.80;0.75;;;11.30;82.20;;;;;;5049815;28;20021;-51
2024/03/10 06:41:06;;;;;;;1.88;0.60;;;11.30;82.40;;;;;;5049664;28;20033;-51
2024/03/10 06:43:32;;;;;;;2.03;0.60;;;11.30;82.40;;;;;;5049751;28;20048;-51
2024/03/10 06:45:58;;;;;;;2.10;0.88;;;11.30;82.40;;;;;;5049148;28;20033;-51
2024/03/10 06:48:24;;;;;;;2.30;1.08;;;11.30;82.40;;;;;;5067348;28;20412;-51
2024/03/10 06:50:49;;;;;;;0.82;0.60;;;11.20;82.40;;;;;;5049476;28;20037;-51
2024/03/10 06:53:15;;;;;;;0.90;0.60;;;11.20;82.50;;;;;;5049508;28;20044;-51
2024/03/10 06:55:41;;;;;;;1.75;0.35;;;11.20;82.40;;;;;;5049265;28;20033;-51
2024/03/10 06:58:06;;;;;;;1.77;0.80;;;11.20;82.50;;;;;;5067548;28;20064;-51
2024/03/10 07:00:32;;;;;;;0.98;0.63;;;11.20;82.60;;;;;;5033030;28;20031;-51
2024/03/10 07:02:59;;;;;;;0.82;0.60;;;11.20;82.80;;;;;;5032714;28;20108;-51
2024/03/10 07:05:25;;;;;;;1.02;0.52;;;11.20;82.80;;;;;;5049572;28;20051;-51
2024/03/10 07:07:51;;;;;;;1.38;0.80;;;11.20;82.60;;;;;;5049255;28;20033;-51
2024/03/10 07:10:17;;;;;;;1.08;0.60;;;11.20;82.50;;;;;;5049205;28;20100;-51
2024/03/10 07:12:43;;;;;;;1.80;0.75;;;11.20;82.70;;;;;;5049304;28;20033;-51
2024/03/10 07:15:12;;;;;;;1.73;0.68;;;11.20;82.80;;;;;;5067006;28;20025;-51
2024/03/10 07:17:41;;;;;;;1.30;0.80;;;11.20;82.80;;;;;;5032758;28;20104;-51
2024/03/10 07:20:10;;;;;;;2.35;0.43;;;11.20;82.80;;;;;;5049473;28;20032;-51
2024/03/10 07:22:37;;;;;;;1.48;0.57;;;11.20;82.90;;;;;;5049542;28;20103;-51
2024/03/10 07:25:06;;;;;;;1.10;0.50;;;11.20;82.90;;;;;;5065994;28;20159;-51
2024/03/10 07:27:32;;;;;;;1.38;0.63;;;11.20;82.90;;;;;;5048894;28;20039;-51
2024/03/10 07:29:58;;;;;;;1.67;0.73;;;11.20;82.90;;;;;;5066787;28;20080;-51
2024/03/10 07:32:25;;;;;;;1.10;0.43;;;11.20;82.90;;;;;;5066794;28;20033;-51
2024/03/10 07:34:54;;;;;;;2.63;0.88;;;11.20;82.90;;;;;;5032245;28;20025;-51
2024/03/10 07:37:21;;;;;;;2.08;0.65;;;11.20;83.00;;;;;;5048649;28;20044;-51
2024/03/10 07:39:47;;;;;;;0.80;0.50;;;11.20;83.10;;;;;;5066589;28;20049;-51
2024/03/10 07:42:13;;;;;;;1.45;0.70;;;11.20;83.10;;;;;;5048882;28;20089;-51
2024/03/10 07:44:38;;;;;;;0.90;0.50;;;11.20;83.10;;;;;;5066475;28;20497;-51
2024/03/10 07:47:04;;;;;;;0.75;0.47;;;11.20;83.00;;;;;;5066390;28;20025;-51
2024/03/10 07:49:31;;;;;;;1.48;0.70;;;11.20;83.00;;;;;;5048389;28;20070;-51
2024/03/10 07:51:57;;;;;;;1.02;0.60;;;11.30;82.80;;;;;;5066372;28;20067;-51
2024/03/10 07:54:22;;;;;;;1.08;0.57;;;11.30;82.80;;;;;;5031886;28;20029;-51
2024/03/10 07:56:48;;;;;;;1.08;0.60;;;11.30;83.00;;;;;;5066140;28;20056;-51
2024/03/10 07:59:13;;;;;;;0.90;0.60;;;11.30;82.90;;;;;;5048401;28;20472;-51
2024/03/10 08:01:39;;;;;;;0.88;0.55;;;11.30;83.00;;;;;;5048618;28;20032;-51
2024/03/10 08:04:05;;;;;;;0.77;0.50;;;11.30;83.10;;;;;;5066120;28;20041;-51
2024/03/10 08:06:30;;;;;;;1.60;0.70;;;11.30;83.20;;;;;;5048485;28;20021;-51
2024/03/10 08:08:56;;;;;;;0.95;0.60;;;11.30;83.30;;;;;;5066055;28;20035;-51
2024/03/10 08:11:22;;;;;;;1.05;0.60;;;11.30;83.30;;;;;;5066211;28;20025;-51
2024/03/10 08:13:49;;;;;;;0.50;0.50;;;11.30;83.40;;;;;;5066148;28;20037;-51
2024/03/10 08:16:15;;;;;;;0.73;0.50;;;11.30;83.20;;;;;;5048346;28;20020;-51
2024/03/10 08:18:41;;;;;;;1.00;0.55;;;11.30;83.30;;;;;;5065931;28;20498;-51
2024/03/10 08:21:07;;;;;;;0.70;0.47;;;11.30;83.40;;;;;;5048211;28;20029;-51
2024/03/10 08:23:33;;;;;;;0.57;0.43;;;11.30;83.40;;;;;;5048527;28;20032;-51
2024/03/10 08:26:00;;;;;;;1.45;0.63;;;11.30;82.90;;;;;;5047618;28;20029;-51
2024/03/10 08:28:26;;;;;;;1.60;0.70;;;11.40;83.00;;;;;;5064569;28;20036;-51
2024/03/10 08:30:53;;;;;;;0.50;0.40;;;11.40;83.00;;;;;;5046330;28;20456;-51
2024/03/10 08:33:19;;;;;;;1.08;0.75;;;11.40;82.80;;;;;;5031177;28;20082;-51
2024/03/10 08:35:46;;;;;;;0.68;0.50;;;11.40;82.90;;;;;;5048337;28;20053;-51
2024/03/10 08:38:12;;;;;;;1.40;0.85;;;11.40;82.80;;;;;;5052205;28;20029;-51
2024/03/10 08:40:38;;;;;;;1.30;0.70;;;11.40;82.70;;;;;;5051679;28;20040;-51
2024/03/10 08:43:04;;;;;;;1.20;0.80;;;11.50;82.60;;;;;;5051802;28;20021;-51
2024/03/10 08:45:29;;;;;;;1.02;0.60;;;11.50;82.70;;;;;;5035152;28;20060;-51
2024/03/10 08:47:55;;;;;;;0.88;0.70;;;11.50;83.00;;;;;;5051725;28;20560;-51
2024/03/10 08:50:21;;;;;;;1.08;0.70;;;11.50;83.00;;;;;;5035030;28;20133;-51
2024/03/10 08:52:47;;;;;;;1.40;0.70;;;11.50;82.70;;;;;;5051755;28;20130;-51
2024/03/10 08:55:14;;;;;;;0.68;0.52;;;11.50;82.60;;;;;;5051975;28;20037;-51
2024/03/10 08:57:41;;;;;;;1.35;0.70;;;11.50;82.60;;;;;;5035152;28;20017;-52
2024/03/10 09:00:10;;;;;;;1.00;0.60;;;11.50;82.40;;;;;;5051723;28;20043;-51
2024/03/10 09:02:40;;;;;;;0.75;0.60;;;11.50;82.30;;;;;;5069224;28;20025;-51
2024/03/10 09:05:07;;;;;;;1.02;0.80;;;11.60;82.20;;;;;;5036018;28;20053;-51
2024/03/10 09:07:33;;;;;;;3.05;0.93;;;11.60;81.90;;;;;;5034824;28;20032;-51
2024/03/10 09:09:59;;;;;;;1.27;0.60;;;11.60;81.80;;;;;;5034728;28;20033;-51
2024/03/10 09:12:25;;;;;;;1.40;0.55;;;11.60;81.90;;;;;;5034701;28;20027;-51
2024/03/10 09:14:51;;;;;;;1.02;0.80;;;11.60;81.80;;;;;;5051119;28;20051;-51
2024/03/10 09:17:17;;;;;;;6.95;0.90;;;11.60;81.40;;;;;;5051224;28;20516;-51
2024/03/10 09:19:42;;;;;;;1.23;0.77;;;11.70;81.50;;;;;;5068258;28;20087;-51
2024/03/10 09:22:10;;;;;;;0.95;0.63;;;11.70;81.60;;;;;;5032948;28;20071;-51
2024/03/10 09:24:36;;;;;;;2.47;0.70;;;11.70;81.40;;;;;;5051124;28;20116;-51
2024/03/10 09:27:03;;;;;;;1.58;0.77;;;11.70;81.40;;;;;;5017283;28;20029;-51
2024/03/10 09:29:29;;;;;;;8.10;1.70;;;11.80;81.40;;;;;;5031991;28;20029;-51
2024/03/10 09:31:55;;;;;;;5.15;1.10;;;11.80;81.30;;;;;;5016226;28;20051;-51
2024/03/10 09:34:22;;;;;;;6.40;0.80;;;11.80;81.30;;;;;;5049809;28;20065;-51
2024/03/10 09:36:48;;;;;;;1.80;0.68;;;11.80;81.20;;;;;;5031495;28;20053;-51
2024/03/10 09:39:13;;;;;;;3.15;1.25;;;11.90;80.90;;;;;;5049240;28;20033;-51
2024/03/10 09:41:41;;;;;;;8.23;1.25;;;11.90;80.90;;;;;;5032193;28;20029;-52
2024/03/10 09:44:07;;;;;;;6.05;1.17;;;11.90;80.90;;;;;;5007071;28;20041;-51
2024/03/10 09:46:33;;;;;;;3.47;1.35;;;12.00;80.80;;;;;;5028751;28;20055;-51
2024/03/10 09:48:58;;;;;;;5.10;1.15;;;11.90;80.80;;;;;;5030344;28;20036;-51
2024/03/10 09:51:24;;;;;;;5.97;2.05;;;12.00;80.90;;;;;;5021532;28;20017;-51
2024/03/10 09:53:50;;;;;;;11.52;2.70;;;12.00;81.00;;;;;;5023829;28;20033;-51
2024/03/10 09:56:16;;;;;;;23.42;3.22;;;12.10;81.00;;;;;;5049967;28;20025;-57
2024/03/10 09:58:50;;;;;;;23.38;3.80;;;12.10;81.00;;;;;;5048247;28;20052;-58
2024/03/10 10:01:18;;;;;;;22.10;3.40;;;12.10;81.30;;;;;;5044385;28;20053;-57
2024/03/10 10:03:49;;;;;;;53.40;5.63;;;12.10;81.40;;;;;;5039250;28;20033;-58
2024/03/10 10:06:16;;;;;;;45.00;5.35;;;12.20;81.80;;;;;;5010035;28;20064;-58
2024/03/10 10:08:42;;;;;;;49.25;5.50;;;12.20;82.10;;;;;;5012113;28;20029;-57
2024/03/10 10:11:09;;;;;;;26.63;4.78;;;12.20;82.20;;;;;;5032562;28;20017;-58
2024/03/10 10:13:37;;;;;;;44.13;5.65;;;12.30;82.20;;;;;;5044590;28;20025;-58
2024/03/10 10:16:08;;;;;;;57.50;6.97;;;12.30;82.30;;;;;;5065155;28;20142;-58
2024/03/10 10:18:34;;;;;;;27.77;5.30;;;12.40;82.70;;;;;;5048527;28;20025;-58
2024/03/10 10:21:02;;;;;;;40.13;6.32;;;12.40;82.70;;;;;;5048834;28;20058;-58
2024/03/10 10:23:30;;;;;;;61.33;8.70;;;12.50;82.70;;;;;;5033243;28;20364;-58
2024/03/10 10:26:05;;;;;;;73.07;9.48;;;12.50;83.10;;;;;;5048109;28;20484;-57
2024/03/10 10:28:34;;;;;;;57.15;8.70;;;12.50;83.30;;;;;;5030661;28;20036;-58
2024/03/10 10:31:15;;;;;;;59.90;8.70;;;12.60;83.40;;;;;;5031489;28;20033;-58
2024/03/10 10:33:45;;;;;;;59.58;9.25;;;12.60;83.50;;;;;;5029631;28;20030;-57
2024/03/10 10:36:11;;;;;;;68.38;9.88;;;12.70;83.60;;;;;;5058960;28;20545;-58
2024/03/10 10:38:37;;;;;;;74.45;10.07;;;12.70;83.90;;;;;;5029971;28;20025;-58
2024/03/10 10:41:05;;;;;;;65.18;10.55;;;12.80;83.70;;;;;;5064332;28;20032;-57
2024/03/10 10:43:32;;;;;;;101.13;12.00;;;12.80;84.00;;;;;;5064329;28;20029;-58
2024/03/10 10:45:58;;;;;;;89.25;10.40;;;12.80;84.30;;;;;;5029347;28;20037;-58
2024/03/10 10:48:24;;;;;;;114.68;14.15;;;12.90;84.30;;;;;;5038922;28;20025;-58
2024/03/10 10:50:51;;;;;;;93.70;11.48;;;12.90;84.30;;;;;;5026447;28;20052;-58
2024/03/10 10:53:17;;;;;;;113.93;13.43;;;13.00;84.00;;;;;;5029184;28;20029;-58
2024/03/10 10:55:45;;;;;;;80.72;11.85;;;13.00;84.00;;;;;;5044787;28;20029;-58
2024/03/10 10:58:15;;;;;;;100.10;13.98;;;13.10;84.10;;;;;;5011296;28;20044;-58
2024/03/10 11:00:49;;;;;;;136.15;14.65;;;13.10;84.20;;;;;;5030809;28;20025;-58
2024/03/10 11:03:18;;;;;;;106.97;12.57;;;13.10;84.40;;;;;;5016237;28;20025;-58
2024/03/10 11:06:15;;;;;;;105.28;13.52;;;13.10;84.20;;;;;;5012558;28;20045;-58
2024/03/10 11:08:41;;;;;;;113.70;14.38;;;13.10;83.90;;;;;;5036242;28;20052;-58
2024/03/10 11:11:07;;;;;;;109.60;13.95;;;13.20;84.20;;;;;;5048498;28;20025;-58
2024/03/10 11:13:33;;;;;;;101.82;13.52;;;13.20;84.20;;;;;;5044786;28;20017;-57
2024/03/10 11:16:21;;;;;;;112.38;14.38;;;13.20;83.90;;;;;;5038630;28;20017;-57
2024/03/10 11:18:47;;;;;;;136.27;15.93;;;13.20;83.90;;;;;;5062526;28;20033;-57
2024/03/10 11:21:17;;;;;;;130.57;18.08;;;13.20;84.50;;;;;;5064044;28;20329;-57
2024/03/10 11:23:47;;;;;;;80.88;13.52;;;13.20;84.40;;;;;;5041697;28;20032;-57
2024/03/10 11:26:16;;;;;;;76.50;12.15;;;13.30;83.90;;;;;;5063886;28;20063;-57
2024/03/10 11:28:58;;;;;;;92.05;12.77;;;13.30;83.60;;;;;;5047527;28;20082;-57
2024/03/10 11:31:26;;;;;;;115.18;15.10;;;13.30;83.70;;;;;;5062747;28;20043;-58
2024/03/10 11:34:03;;;;;;;92.38;12.57;;;13.40;84.10;;;;;;5061494;28;20040;-58
2024/03/10 11:36:36;;;;;;;122.10;14.48;;;13.40;83.80;;;;;;5060469;28;20036;-58
2024/03/10 11:39:02;;;;;;;96.15;12.45;;;13.40;83.70;;;;;;5045694;28;20029;-58
2024/03/10 11:41:28;;;;;;;113.47;16.90;;;13.40;83.60;;;;;;5045810;28;20039;-58
2024/03/10 11:43:54;;;;;;;155.02;20.65;;;13.40;84.50;;;;;;5028037;28;20051;-58
2024/03/10 11:46:19;;;;;;;104.93;14.73;;;13.50;84.80;;;;;;5047776;28;20089;-57
2024/03/10 11:48:52;;;;;;;136.10;18.90;;;13.50;84.50;;;;;;5042951;28;20436;-57
2024/03/10 11:51:18;;;;;;;145.90;17.90;;;13.50;84.50;;;;;;5060104;28;20036;-58
2024/03/10 11:53:44;;;;;;;113.22;14.95;;;13.50;84.50;;;;;;5044986;28;20055;-58
2024/03/10 11:56:10;;;;;;;121.22;14.90;;;13.50;84.80;;;;;;5043468;28;20032;-58
2024/03/10 11:58:36;;;;;;;178.25;21.30;;;13.50;84.80;;;;;;5013871;28;20046;-57
2024/03/10 12:01:05;;;;;;;159.32;19.35;;;13.60;85.00;;;;;;5043945;28;20024;-57
2024/03/10 12:03:34;;;;;;;193.57;21.23;;;13.50;85.40;;;;;;5028066;28;20028;-57
2024/03/10 12:06:01;;;;;;;158.68;17.92;;;13.60;85.30;;;;;;5027159;28;20025;-58
2024/03/10 12:08:27;;;;;;;186.68;21.42;;;13.60;85.60;;;;;;5028062;28;20040;-58
2024/03/10 12:11:02;;;;;;;225.80;25.70;;;13.60;85.70;;;;;;5060749;28;20029;-58
2024/03/10 12:13:28;;;;;;;212.60;22.00;;;13.60;85.90;;;;;;5048300;28;20029;-58
2024/03/10 12:16:06;;;;;;;154.10;20.65;;;13.60;86.20;;;;;;5048126;28;20104;-58
2024/03/10 12:18:33;;;;;;;188.40;20.35;;;13.60;86.10;;;;;;5048084;28;20079;-58
2024/03/10 12:20:59;;;;;;;158.23;19.58;;;13.70;86.10;;;;;;5061559;28;20025;-58
2024/03/10 12:23:25;;;;;;;165.32;20.27;;;13.70;86.30;;;;;;5032673;28;20040;-57
2024/03/10 12:25:51;;;;;;;167.00;20.60;;;13.70;86.40;;;;;;5047095;28;20092;-58
2024/03/10 12:28:18;;;;;;;183.65;20.63;;;13.70;86.50;;;;;;5047200;28;20033;-58
2024/03/10 12:30:44;;;;;;;212.30;24.73;;;13.80;87.00;;;;;;5048168;28;20044;-58
2024/03/10 12:33:10;;;;;;;179.50;21.05;;;13.80;87.30;;;;;;5050211;28;20036;-58
2024/03/10 12:35:39;;;;;;;211.85;22.52;;;13.80;87.40;;;;;;5050208;28;20112;-57
2024/03/10 12:38:06;;;;;;;173.23;19.65;;;13.70;87.20;;;;;;5044050;28;20395;-57
2024/03/10 12:40:32;;;;;;;193.13;21.98;;;13.90;86.70;;;;;;5031644;28;20037;-57
2024/03/10 12:42:59;;;;;;;198.18;21.50;;;13.90;86.70;;;;;;5037984;28;20111;-58
2024/03/10 12:45:25;;;;;;;245.55;28.52;;;13.90;87.30;;;;;;5052332;28;20149;-57
2024/03/10 12:47:51;;;;;;;195.98;23.65;;;13.90;88.10;;;;;;5037438;28;20049;-58
2024/03/10 12:50:17;;;;;;;197.88;23.73;;;13.90;87.60;;;;;;5032246;28;20148;-58
2024/03/10 12:52:42;;;;;;;236.45;25.10;;;14.00;87.70;;;;;;5044835;28;20021;-58
2024/03/10 12:55:09;;;;;;;246.70;27.73;;;14.00;88.30;;;;;;5041223;28;20534;-58
2024/03/10 12:57:36;;;;;;;198.65;23.45;;;14.00;88.70;;;;;;5036970;28;20123;-58
2024/03/10 13:02:47;;;;;;;218.10;25.08;;;14.00;88.30;;;;;;5036421;28;20060;-58